createdAt,value
2023-07-08T00:00:07.110Z,15.50
2023-07-08T00:03:31.061Z,15.64
2023-07-08T00:06:56.095Z,15.76
2023-07-08T00:10:43.080Z,15.79
2023-07-08T00:14:09.360Z,16.00
2023-07-08T00:17:33.125Z,16.19
2023-07-08T00:21:03.099Z,16.37
2023-07-08T00:24:28.092Z,16.36
2023-07-08T00:27:52.117Z,16.16
2023-07-08T00:31:17.156Z,16.23
2023-07-08T00:34:41.123Z,16.17
2023-07-08T00:38:10.096Z,16.25
2023-07-08T00:41:41.140Z,16.48
2023-07-08T00:45:06.128Z,16.16
2023-07-08T00:48:46.108Z,16.36
2023-07-08T00:52:11.136Z,16.31
2023-07-08T00:55:35.115Z,16.33
2023-07-08T00:59:13.177Z,16.08
2023-07-08T01:02:39.153Z,16.43
2023-07-08T01:06:06.155Z,16.52
2023-07-08T01:09:32.082Z,16.25
2023-07-08T01:13:02.145Z,16.35
2023-07-08T01:16:28.220Z,16.38
2023-07-08T01:19:52.187Z,16.45
2023-07-08T01:23:17.148Z,16.54
2023-07-08T01:26:42.137Z,16.44
2023-07-08T01:30:07.247Z,16.26
2023-07-08T01:33:37.147Z,16.10
2023-07-08T01:37:04.194Z,16.06
2023-07-08T01:40:33.139Z,16.10
2023-07-08T01:43:57.200Z,15.99
2023-07-08T01:47:35.184Z,15.89
2023-07-08T01:51:07.174Z,15.98
2023-07-08T01:54:25.852Z,15.99
2023-07-08T01:57:43.157Z,15.97
2023-07-08T02:01:07.221Z,15.84
2023-07-08T02:04:31.230Z,15.67
2023-07-08T02:07:55.189Z,15.75
2023-07-08T02:11:20.373Z,15.81
2023-07-08T02:14:44.213Z,15.69
2023-07-08T02:18:08.208Z,15.71
2023-07-08T02:21:33.154Z,15.81
2023-07-08T02:24:58.249Z,15.72
2023-07-08T02:28:22.221Z,15.77
2023-07-08T02:31:46.260Z,15.84
2023-07-08T02:35:10.173Z,15.66
2023-07-08T02:38:35.202Z,15.47
2023-07-08T02:42:00.219Z,15.41
2023-07-08T02:45:26.405Z,15.30
2023-07-08T02:48:51.195Z,15.33
2023-07-08T02:52:15.272Z,15.36
2023-07-08T02:55:33.511Z,15.45
2023-07-08T02:58:52.295Z,15.33
2023-07-08T03:02:17.274Z,15.36
2023-07-08T03:05:43.274Z,15.35
2023-07-08T03:09:07.263Z,15.33
2023-07-08T03:12:32.227Z,14.95
2023-07-08T03:15:56.214Z,15.07
2023-07-08T03:19:24.416Z,15.08
2023-07-08T03:22:49.255Z,14.84
2023-07-08T03:26:14.277Z,14.88
2023-07-08T03:29:39.236Z,14.81
2023-07-08T03:33:04.383Z,14.48
2023-07-08T03:36:34.258Z,14.46
2023-07-08T03:39:59.313Z,14.48
2023-07-08T03:43:24.252Z,14.55
2023-07-08T03:46:52.426Z,14.54
2023-07-08T03:50:20.251Z,14.60
2023-07-08T03:53:45.250Z,14.61
2023-07-08T03:57:03.973Z,14.48
2023-07-08T04:00:24.383Z,14.42
2023-07-08T04:03:50.334Z,14.32
2023-07-08T04:07:14.451Z,14.28
2023-07-08T04:10:39.232Z,14.15
2023-07-08T04:14:03.610Z,14.15
2023-07-08T04:17:32.272Z,14.08
2023-07-08T04:24:30.299Z,14.10
2023-07-08T04:27:54.280Z,14.08
2023-07-08T04:31:18.474Z,14.03
2023-07-08T04:34:42.395Z,14.05
2023-07-08T04:38:07.231Z,13.94
2023-07-08T04:41:32.353Z,13.87
2023-07-08T04:44:58.251Z,14.03
2023-07-08T04:48:23.281Z,13.98
2023-07-08T04:51:47.219Z,13.89
2023-07-08T04:55:12.276Z,13.78
2023-07-08T04:58:29.895Z,13.74
2023-07-08T05:01:50.440Z,13.69
2023-07-08T05:05:15.271Z,13.77
2023-07-08T05:08:39.315Z,13.71
2023-07-08T05:12:03.237Z,13.58
2023-07-08T05:15:28.276Z,13.57
2023-07-08T05:18:52.220Z,13.47
2023-07-08T05:22:17.391Z,13.39
2023-07-08T05:25:42.268Z,13.40
2023-07-08T05:29:07.296Z,13.31
2023-07-08T05:32:31.339Z,13.27
2023-07-08T05:35:55.246Z,13.19
2023-07-08T05:39:19.290Z,13.12
2023-07-08T05:42:44.223Z,13.09
2023-07-08T05:46:16.279Z,13.08
2023-07-08T05:49:40.270Z,12.94
2023-07-08T05:53:05.222Z,12.78
2023-07-08T05:56:29.238Z,12.68
2023-07-08T05:59:47.928Z,12.63
2023-07-08T06:03:07.321Z,12.55
2023-07-08T06:06:32.229Z,12.47
2023-07-08T06:09:57.352Z,12.33
2023-07-08T06:13:22.244Z,12.24
2023-07-08T06:16:47.631Z,12.16
2023-07-08T06:20:13.255Z,12.21
2023-07-08T06:23:37.241Z,12.59
2023-07-08T06:27:02.231Z,12.59
2023-07-08T06:30:26.249Z,12.38
2023-07-08T06:33:50.243Z,12.44
2023-07-08T06:37:15.365Z,12.41
2023-07-08T06:40:40.245Z,12.64
2023-07-08T06:44:05.295Z,12.64
2023-07-08T06:47:30.248Z,12.19
2023-07-08T06:50:54.418Z,12.37
2023-07-08T06:54:22.253Z,12.19
2023-07-08T06:57:50.586Z,12.04
2023-07-08T07:01:07.880Z,11.93
2023-07-08T07:04:26.286Z,11.73
2023-07-08T07:07:51.223Z,11.88
2023-07-08T07:11:16.492Z,11.82
2023-07-08T07:18:09.508Z,11.92
2023-07-08T07:21:34.256Z,12.08
2023-07-08T07:24:59.392Z,11.89
2023-07-08T07:28:23.255Z,11.91
2023-07-08T07:31:49.380Z,11.86
2023-07-08T07:35:14.251Z,11.65
2023-07-08T07:38:38.311Z,11.54
2023-07-08T07:42:03.237Z,11.79
2023-07-08T07:45:31.277Z,11.86
2023-07-08T07:48:55.240Z,11.87
2023-07-08T07:52:21.277Z,11.87
2023-07-08T07:55:45.261Z,11.82
2023-07-08T07:59:09.310Z,11.68
2023-07-08T08:02:28.949Z,11.49
2023-07-08T08:05:47.326Z,11.43
2023-07-08T08:09:11.274Z,11.22
2023-07-08T08:12:44.348Z,11.16
2023-07-08T08:16:17.286Z,10.90
2023-07-08T08:19:42.315Z,10.98
2023-07-08T08:23:06.329Z,11.12
2023-07-08T08:26:31.451Z,11.16
2023-07-08T08:29:56.307Z,10.98
2023-07-08T08:33:21.314Z,10.92
2023-07-08T08:36:46.387Z,11.02
2023-07-08T08:40:11.299Z,10.91
2023-07-08T08:43:39.894Z,10.96
2023-07-08T08:47:40.378Z,11.19
2023-07-08T08:51:26.474Z,11.21
2023-07-08T08:55:00.302Z,11.16
2023-07-08T08:58:34.341Z,11.14
2023-07-08T09:01:58.363Z,11.04
2023-07-08T09:05:25.331Z,11.18
2023-07-08T09:08:51.314Z,11.23
2023-07-08T09:12:21.354Z,11.15
2023-07-08T09:15:46.332Z,11.32
2023-07-08T09:19:36.343Z,11.30
2023-07-08T09:23:27.287Z,11.32
2023-07-08T09:26:52.396Z,11.32
2023-07-08T09:30:17.352Z,10.95
2023-07-08T09:33:43.344Z,11.05
2023-07-08T09:37:08.318Z,11.04
2023-07-08T09:40:35.348Z,11.22
2023-07-08T09:43:59.299Z,11.20
2023-07-08T09:47:41.721Z,11.36
2023-07-08T09:51:09.339Z,11.16
2023-07-08T09:54:34.383Z,11.31
2023-07-08T09:58:02.015Z,11.30
2023-07-08T10:01:40.466Z,11.10
2023-07-08T10:05:09.325Z,11.26
2023-07-08T10:08:37.481Z,11.10
2023-07-08T10:12:10.414Z,10.96
2023-07-08T10:15:45.366Z,11.02
2023-07-08T10:19:10.339Z,11.14
2023-07-08T10:22:54.354Z,11.02
2023-07-08T10:26:29.349Z,11.03
2023-07-08T10:30:13.347Z,10.90
2023-07-08T10:34:18.369Z,10.98
2023-07-08T10:37:52.360Z,10.85
2023-07-08T10:41:42.359Z,10.90
2023-07-08T10:45:47.426Z,10.83
2023-07-08T10:49:41.356Z,10.67
2023-07-08T10:53:18.388Z,10.53
2023-07-08T10:57:04.350Z,10.37
2023-07-08T11:00:49.385Z,10.45
2023-07-08T11:04:22.321Z,10.52
2023-07-08T11:08:01.437Z,10.50
2023-07-08T11:11:41.508Z,10.60
2023-07-08T11:15:08.390Z,10.66
2023-07-08T11:18:56.352Z,10.71
2023-07-08T11:22:27.358Z,10.75
2023-07-08T11:25:51.352Z,10.77
2023-07-08T11:29:17.366Z,10.85
2023-07-08T11:32:44.383Z,10.93
2023-07-08T11:36:10.410Z,10.85
2023-07-08T11:39:49.422Z,10.92
2023-07-08T11:43:22.353Z,10.89
2023-07-08T11:46:48.405Z,10.93
2023-07-08T11:50:13.376Z,10.98
2023-07-08T11:53:51.439Z,11.01
2023-07-08T11:57:21.399Z,11.01
2023-07-08T12:00:48.399Z,11.00
2023-07-08T12:04:37.417Z,11.02
2023-07-08T12:08:03.347Z,10.96
2023-07-08T12:11:28.431Z,10.93
2023-07-08T12:14:45.982Z,10.93
2023-07-08T12:18:06.457Z,11.08
2023-07-08T12:21:31.538Z,10.99
2023-07-08T12:24:57.393Z,11.16
2023-07-08T12:28:21.377Z,11.08
2023-07-08T12:31:47.393Z,11.09
2023-07-08T12:35:15.508Z,11.18
2023-07-08T12:38:44.380Z,11.27
2023-07-08T12:42:09.430Z,11.30
2023-07-08T12:45:37.384Z,11.32
2023-07-08T12:49:01.429Z,11.31
2023-07-08T12:52:36.372Z,11.41
2023-07-08T12:56:01.789Z,11.42
2023-07-08T12:59:32.462Z,11.48
2023-07-08T13:02:56.437Z,11.34
2023-07-08T13:06:21.423Z,11.38
2023-07-08T13:10:00.430Z,11.35
2023-07-08T13:13:32.544Z,11.32
2023-07-08T13:16:51.805Z,11.30
2023-07-08T13:20:18.443Z,11.30
2023-07-08T13:23:43.405Z,11.28
2023-07-08T13:27:07.559Z,11.30
2023-07-08T13:30:35.409Z,11.30
2023-07-08T13:34:08.390Z,11.25
2023-07-08T13:37:34.411Z,11.25
2023-07-08T13:41:03.656Z,11.31
2023-07-08T13:44:27.420Z,11.00
2023-07-08T13:47:52.500Z,10.97
2023-07-08T13:51:24.424Z,10.87
2023-07-08T13:54:58.455Z,10.84
2023-07-08T13:58:22.451Z,10.82
2023-07-08T14:01:47.526Z,10.91
2023-07-08T14:05:13.553Z,10.97
2023-07-08T14:08:37.447Z,11.10
2023-07-08T14:12:01.438Z,11.02
2023-07-08T14:15:25.617Z,11.07
2023-07-08T14:18:44.027Z,11.06
2023-07-08T14:22:13.450Z,11.13
2023-07-08T14:25:38.425Z,11.09
2023-07-08T14:29:02.442Z,11.14
2023-07-08T14:32:41.476Z,11.20
2023-07-08T14:36:06.420Z,11.27
2023-07-08T14:39:33.470Z,11.21
2023-07-08T14:42:58.503Z,11.24
2023-07-08T14:46:25.614Z,11.27
2023-07-08T14:49:49.562Z,11.23
2023-07-08T14:53:14.507Z,11.21
2023-07-08T14:56:38.579Z,11.26
2023-07-08T15:00:03.522Z,11.34
2023-07-08T15:03:27.547Z,11.29
2023-07-08T15:06:52.438Z,11.28
2023-07-08T15:10:17.462Z,11.33
2023-07-08T15:13:44.584Z,11.42
2023-07-08T15:17:09.505Z,11.38
2023-07-08T15:20:33.450Z,11.33
2023-07-08T15:23:58.648Z,11.31
2023-07-08T15:27:27.486Z,11.31
2023-07-08T15:30:52.498Z,11.29
2023-07-08T15:34:17.488Z,11.26
2023-07-08T15:37:41.473Z,11.37
2023-07-08T15:41:06.460Z,11.18
2023-07-08T15:44:31.503Z,11.23
2023-07-08T15:47:56.488Z,11.30
2023-07-08T15:51:21.639Z,11.25
2023-07-08T15:54:46.461Z,11.12
2023-07-08T15:58:22.519Z,11.03
2023-07-08T16:01:46.490Z,10.90
2023-07-08T16:05:10.577Z,10.90
2023-07-08T16:08:34.480Z,10.84
2023-07-08T16:11:53.538Z,11.03
2023-07-08T16:15:17.517Z,11.00
2023-07-08T16:18:42.638Z,11.07
2023-07-08T16:22:07.467Z,11.09
2023-07-08T16:25:34.500Z,11.14
2023-07-08T16:29:02.451Z,11.15
2023-07-08T16:32:34.380Z,11.12
2023-07-08T16:35:58.493Z,11.24
2023-07-08T16:39:22.512Z,11.15
2023-07-08T16:42:47.495Z,11.03
2023-07-08T16:46:12.569Z,11.05
2023-07-08T16:49:36.497Z,11.00
2023-07-08T16:53:01.603Z,10.94
2023-07-08T16:56:37.264Z,10.99
2023-07-08T17:00:02.524Z,11.05
2023-07-08T17:03:31.640Z,10.82
2023-07-08T17:06:56.603Z,10.95
2023-07-08T17:10:21.497Z,10.92
2023-07-08T17:13:46.538Z,10.92
2023-07-08T17:17:11.497Z,10.93
2023-07-08T17:20:40.526Z,10.78
2023-07-08T17:23:58.121Z,10.81
2023-07-08T17:27:17.578Z,10.66
2023-07-08T17:30:42.494Z,10.53
2023-07-08T17:34:11.490Z,10.45
2023-07-08T17:37:35.540Z,10.47
2023-07-08T17:40:59.717Z,10.47
2023-07-08T17:44:26.521Z,10.41
2023-07-08T17:47:51.503Z,10.37
2023-07-08T17:51:15.551Z,10.28
2023-07-08T17:54:43.416Z,10.21
2023-07-08T17:58:09.509Z,10.17
2023-07-08T18:01:33.559Z,10.25
2023-07-08T18:04:57.609Z,10.18
2023-07-08T18:08:22.525Z,10.22
2023-07-08T18:11:46.563Z,10.27
2023-07-08T18:15:12.497Z,10.18
2023-07-08T18:18:37.526Z,10.11
2023-07-08T18:22:02.496Z,10.02
2023-07-08T18:25:52.512Z,10.08
2023-07-08T18:29:19.506Z,10.11
2023-07-08T18:32:44.562Z,9.96
2023-07-08T18:36:09.542Z,9.90
2023-07-08T18:39:33.562Z,10.04
2023-07-08T18:42:59.549Z,9.91
2023-07-08T18:46:28.599Z,9.96
2023-07-08T18:49:52.560Z,9.94
2023-07-08T18:53:17.628Z,9.93
2023-07-08T18:56:41.561Z,9.97
2023-07-08T19:00:05.565Z,9.77
2023-07-08T19:03:48.692Z,9.88
2023-07-08T19:07:12.508Z,9.98
2023-07-08T19:10:39.576Z,10.03
2023-07-08T19:14:06.581Z,9.92
2023-07-08T19:17:30.961Z,9.90
2023-07-08T19:20:58.524Z,9.96
2023-07-08T19:24:37.927Z,9.91
2023-07-08T19:28:02.721Z,9.86
2023-07-08T19:31:40.521Z,9.99
2023-07-08T19:35:05.578Z,9.96
2023-07-08T19:38:31.518Z,10.06
2023-07-08T19:41:56.548Z,10.22
2023-07-08T19:45:21.593Z,10.43
2023-07-08T19:48:49.610Z,10.57
2023-07-08T19:52:14.557Z,10.81
2023-07-08T19:55:39.548Z,10.92
2023-07-08T19:59:03.562Z,11.25
2023-07-08T20:02:34.576Z,11.50
2023-07-08T20:05:59.785Z,11.55
2023-07-08T20:09:25.564Z,11.59
2023-07-08T20:12:49.584Z,11.39
2023-07-08T20:16:14.621Z,11.38
2023-07-08T20:19:39.568Z,11.31
2023-07-08T20:23:03.559Z,11.45
2023-07-08T20:26:46.572Z,11.58
2023-07-08T20:30:04.196Z,11.83
2023-07-08T20:33:22.598Z,11.92
2023-07-08T20:36:46.572Z,12.06
2023-07-08T20:40:11.588Z,12.09
2023-07-08T20:43:37.540Z,12.15
2023-07-08T20:47:02.606Z,12.30
2023-07-08T20:50:35.562Z,12.36
2023-07-08T20:54:00.600Z,12.44
2023-07-08T20:57:28.550Z,12.61
2023-07-08T21:00:56.621Z,12.68
2023-07-08T21:04:20.603Z,12.80
2023-07-08T21:07:44.612Z,13.02
2023-07-08T21:11:10.626Z,13.39
2023-07-08T21:14:34.720Z,13.63
2023-07-08T21:17:59.737Z,14.16
2023-07-08T21:21:25.594Z,15.01
2023-07-08T21:24:50.594Z,15.89
2023-07-08T21:28:15.640Z,17.04
2023-07-08T21:31:33.288Z,16.02
2023-07-08T21:34:51.585Z,15.68
2023-07-08T21:38:18.586Z,15.03
2023-07-08T21:41:42.599Z,14.75
2023-07-08T21:45:06.569Z,14.45
2023-07-08T21:48:31.753Z,14.52
2023-07-08T21:51:56.608Z,14.61
2023-07-08T21:55:33.701Z,14.61
2023-07-08T21:58:57.718Z,14.66
2023-07-08T22:02:27.635Z,14.81
2023-07-08T22:05:51.574Z,15.14
2023-07-08T22:09:25.644Z,15.80
2023-07-08T22:12:49.606Z,16.27
2023-07-08T22:16:19.802Z,16.15
2023-07-08T22:19:43.575Z,16.12
2023-07-08T22:23:07.640Z,15.98
2023-07-08T22:26:32.594Z,16.44
2023-07-08T22:29:56.653Z,16.67
2023-07-08T22:33:15.217Z,16.41
2023-07-08T22:36:33.837Z,16.33
2023-07-08T22:39:58.614Z,16.45
2023-07-08T22:43:29.686Z,16.60
2023-07-08T22:46:53.701Z,16.49
2023-07-08T22:50:18.683Z,16.91
2023-07-08T22:53:48.599Z,17.48
2023-07-08T22:57:13.658Z,17.63
2023-07-08T23:00:42.624Z,17.88
2023-07-08T23:04:06.719Z,17.86
2023-07-08T23:07:32.624Z,17.63
2023-07-08T23:10:56.674Z,17.25
2023-07-08T23:14:21.677Z,16.98
2023-07-08T23:17:45.703Z,16.99
2023-07-08T23:21:10.671Z,16.79
2023-07-08T23:24:35.646Z,16.64
2023-07-08T23:27:59.642Z,16.72
2023-07-08T23:31:29.729Z,16.67
2023-07-08T23:34:47.350Z,16.62
2023-07-08T23:38:06.674Z,16.32
2023-07-08T23:41:30.642Z,16.26
2023-07-08T23:44:54.698Z,16.32
2023-07-08T23:48:19.640Z,16.35
2023-07-08T23:51:44.656Z,16.21
2023-07-08T23:55:08.654Z,15.97
2023-07-08T23:58:40.625Z,15.88
